LEMG METAR and TAF | Updated Today

LEMG METAR

Málaga Airport

Observation time: 8 min. ago

LEMG 070900Z 31006KT CAVOK 13/05 Q1023 NOSIG

Need help? Read our tutorial on how to read METARs or read the parsed version below.

Málaga Airport (LEMG) METAR

  • Weather conditions on Tue, 07 Dec 2021 09:00:00 +0000 (8 min. ago):
  • Present conditions: Dry
  • Clouds: Clear skies
  • Visibility: Greater than 10 km
  • Wind: 310 degrees at 6 knots
  • Temperature: 13 celsius
  • Dew point: 5 celsius
  • Pressure: 1023 millibars
  • Remarks: None


Useful to know...

LEMG TAF

Málaga Airport

TAF LEMG 070500Z 0706/0806 29008KT CAVOK TX20/0712Z TN09/0707Z BECMG 0709/0711 16005KT BECMG 0714/0716 31011KT
Observation time: 4:08 hr. ago
Need help? Read our tutorial on how to read TAFs or read the parsed version below.

Parsed version of TAF for Málaga Airport (LEMG)

  • From 07 December at 06:00 UTC, to day 08 of the month at 06:00 UTC
  • Visibility: Greater than 10 km
  • Wind: 290 degrees at 8
  • Expected to arise soon, from 07 December at 09:00 UTC, to day 07 of the month at 11:00 UTC
  • Wind: 160 degrees at 5
  • Expected to arise soon, from 07 December at 14:00 UTC, to day 07 of the month at 16:00 UTC
  • Wind: 310 degrees at 11

Airports near LEMG

No airports found within 100nm radius.